createdAt,value
2018-02-11T00:00:25.305Z,2.76
2018-02-11T00:01:25.373Z,2.75
2018-02-11T00:02:25.281Z,2.76
2018-02-11T00:03:25.396Z,2.76
2018-02-11T00:04:25.366Z,2.75
2018-02-11T00:05:25.361Z,2.75
2018-02-11T00:06:25.388Z,2.75
2018-02-11T00:07:25.363Z,2.75
2018-02-11T00:08:25.306Z,2.72
2018-02-11T00:09:25.284Z,2.73
2018-02-11T00:10:25.320Z,2.69
2018-02-11T00:11:25.436Z,2.71
2018-02-11T00:12:25.275Z,2.68
2018-02-11T00:13:25.294Z,2.66
2018-02-11T00:14:25.375Z,2.66
2018-02-11T00:15:25.313Z,2.66
2018-02-11T00:16:25.323Z,2.64
2018-02-11T00:17:25.332Z,2.65
2018-02-11T00:18:25.314Z,2.61
2018-02-11T00:19:25.376Z,2.61
2018-02-11T00:20:25.373Z,2.59
2018-02-11T00:21:25.409Z,2.59
2018-02-11T00:22:25.378Z,2.55
2018-02-11T00:23:25.297Z,2.52
2018-02-11T00:24:25.349Z,2.56
2018-02-11T00:25:25.397Z,2.52
2018-02-11T00:26:25.341Z,2.52
2018-02-11T00:27:25.395Z,2.55
2018-02-11T00:28:25.474Z,2.54
2018-02-11T00:29:25.409Z,2.54
2018-02-11T00:30:25.406Z,2.54
2018-02-11T00:31:25.356Z,2.54
2018-02-11T00:32:25.383Z,2.51
2018-02-11T00:33:25.371Z,2.49
2018-02-11T00:34:25.358Z,2.47
2018-02-11T00:35:25.434Z,2.47
2018-02-11T00:36:25.328Z,2.43
2018-02-11T00:37:25.340Z,2.43
2018-02-11T00:38:25.387Z,2.41
2018-02-11T00:39:24.593Z,2.4
2018-02-11T00:40:24.469Z,2.37
2018-02-11T00:41:24.498Z,2.4
2018-02-11T00:42:24.514Z,2.36
2018-02-11T00:43:24.528Z,2.36
2018-02-11T00:44:24.532Z,2.36
2018-02-11T00:45:24.479Z,2.33
2018-02-11T00:46:24.510Z,2.31
2018-02-11T00:47:24.562Z,2.31
2018-02-11T00:48:24.581Z,2.33
2018-02-11T00:49:24.555Z,2.31
2018-02-11T00:50:24.464Z,2.3
2018-02-11T00:51:24.513Z,2.3
2018-02-11T00:52:24.561Z,2.31
2018-02-11T00:53:24.489Z,2.31
2018-02-11T00:54:24.481Z,2.28
2018-02-11T00:55:24.503Z,2.31
2018-02-11T00:56:24.524Z,2.3
2018-02-11T00:57:24.527Z,2.3
2018-02-11T00:58:24.497Z,2.31
2018-02-11T00:59:24.573Z,2.34
2018-02-11T01:00:24.536Z,2.31
2018-02-11T01:01:24.579Z,2.34
2018-02-11T01:02:24.531Z,2.3
2018-02-11T01:03:24.475Z,2.31
2018-02-11T01:04:24.519Z,2.28
2018-02-11T01:05:24.571Z,2.3
2018-02-11T01:06:24.474Z,2.33
2018-02-11T01:07:24.623Z,2.31
2018-02-11T01:08:24.539Z,2.31
2018-02-11T01:09:24.566Z,2.3
2018-02-11T01:10:24.747Z,2.31
2018-02-11T01:11:24.818Z,2.3
2018-02-11T01:12:24.775Z,2.31
2018-02-11T01:13:24.727Z,2.31
2018-02-11T01:14:24.804Z,2.3
2018-02-11T01:15:24.713Z,2.28
2018-02-11T01:16:24.766Z,2.26
2018-02-11T01:17:24.772Z,2.26
2018-02-11T01:18:24.794Z,2.24
2018-02-11T01:19:24.696Z,2.26
2018-02-11T01:20:24.773Z,2.22
2018-02-11T01:21:24.758Z,2.22
2018-02-11T01:22:24.687Z,2.2
2018-02-11T01:23:24.785Z,2.2
2018-02-11T01:24:24.710Z,2.17
2018-02-11T01:25:24.759Z,2.18
2018-02-11T01:26:24.740Z,2.2
2018-02-11T01:27:24.747Z,2.16
2018-02-11T01:28:24.769Z,2.16
2018-02-11T01:29:24.713Z,2.16
2018-02-11T01:30:24.785Z,2.16
2018-02-11T01:31:38.809Z,2.13
2018-02-11T01:32:24.810Z,2.14
2018-02-11T01:33:24.819Z,2.11
2018-02-11T01:34:24.717Z,2.1
2018-02-11T01:35:24.768Z,2.1
2018-02-11T01:36:24.722Z,2.1
2018-02-11T01:37:24.746Z,2.1
2018-02-11T01:38:24.786Z,2.09
2018-02-11T01:39:24.751Z,2.09
2018-02-11T01:40:24.754Z,2.07
2018-02-11T01:41:24.608Z,2.07
2018-02-11T01:42:24.627Z,2.06
2018-02-11T01:43:24.587Z,2.06
2018-02-11T01:44:24.562Z,2.07
2018-02-11T01:45:24.570Z,2.04
2018-02-11T01:46:24.594Z,2.03
2018-02-11T01:47:24.556Z,2
2018-02-11T01:48:24.591Z,1.99
2018-02-11T01:49:24.617Z,2
2018-02-11T01:50:24.608Z,1.99
2018-02-11T01:51:24.566Z,1.97
2018-02-11T01:52:24.619Z,1.97
2018-02-11T01:53:24.535Z,1.94
2018-02-11T01:54:24.576Z,1.96
2018-02-11T01:55:24.568Z,1.99
2018-02-11T01:56:24.565Z,2.01
2018-02-11T01:57:24.626Z,2
2018-02-11T01:58:24.772Z,1.97
2018-02-11T01:59:24.660Z,1.96
2018-02-11T02:00:24.591Z,1.97
2018-02-11T02:01:24.526Z,1.99
2018-02-11T02:02:24.543Z,1.96
2018-02-11T02:03:24.551Z,1.96
2018-02-11T02:04:24.660Z,1.93
2018-02-11T02:05:24.708Z,1.92
2018-02-11T02:06:24.551Z,1.93
2018-02-11T02:07:24.619Z,1.93
2018-02-11T02:08:24.611Z,1.92
2018-02-11T02:09:24.633Z,1.97
2018-02-11T02:10:24.566Z,1.94
2018-02-11T02:11:24.672Z,1.93
2018-02-11T02:12:24.631Z,1.93
2018-02-11T02:13:24.661Z,1.92
2018-02-11T02:14:24.702Z,1.93
2018-02-11T02:15:24.627Z,1.87
2018-02-11T02:16:24.670Z,1.92
2018-02-11T02:17:24.636Z,1.93
2018-02-11T02:18:24.683Z,1.92
2018-02-11T02:19:24.712Z,1.87
2018-02-11T02:20:24.665Z,1.92
2018-02-11T02:21:24.605Z,1.9
2018-02-11T02:22:24.670Z,1.93
2018-02-11T02:23:24.677Z,1.93
2018-02-11T02:24:24.633Z,1.92
2018-02-11T02:25:24.629Z,1.9
2018-02-11T02:26:24.605Z,1.9
2018-02-11T02:27:24.653Z,1.94
2018-02-11T02:28:24.735Z,1.92
2018-02-11T02:29:24.720Z,1.9
2018-02-11T02:30:24.727Z,1.9
2018-02-11T02:31:24.637Z,1.92
2018-02-11T02:32:24.608Z,1.93
2018-02-11T02:33:24.748Z,1.93
2018-02-11T02:34:24.634Z,1.9
2018-02-11T02:35:24.682Z,1.92
2018-02-11T02:36:24.745Z,1.93
2018-02-11T02:37:24.707Z,1.92
2018-02-11T02:38:24.746Z,1.9
2018-02-11T02:41:43.632Z,1.92
2018-02-11T02:42:24.371Z,1.89
2018-02-11T02:43:24.410Z,1.92
2018-02-11T02:44:24.419Z,1.93
2018-02-11T02:45:24.412Z,1.92
2018-02-11T02:46:24.351Z,1.93
2018-02-11T02:47:24.333Z,1.94
2018-02-11T02:48:24.349Z,1.94
2018-02-11T02:49:24.428Z,1.97
2018-02-11T02:50:24.384Z,1.96
2018-02-11T02:51:24.437Z,1.94
2018-02-11T02:52:24.390Z,1.97
2018-02-11T02:53:24.416Z,1.96
2018-02-11T02:54:24.424Z,1.99
2018-02-11T02:55:24.371Z,1.96
2018-02-11T02:56:24.371Z,1.97
2018-02-11T02:57:24.425Z,1.99
2018-02-11T02:58:24.413Z,2
2018-02-11T02:59:24.417Z,2.03
2018-02-11T03:00:24.369Z,2
2018-02-11T03:01:24.421Z,1.99
2018-02-11T03:02:24.399Z,1.97
2018-02-11T03:03:24.405Z,2
2018-02-11T03:04:24.457Z,2
2018-02-11T03:05:24.353Z,2
2018-02-11T03:06:24.384Z,2
2018-02-11T03:07:24.312Z,2.01
2018-02-11T03:08:24.406Z,2
2018-02-11T03:09:24.433Z,2
2018-02-11T03:10:24.349Z,2
2018-02-11T03:11:24.459Z,2
2018-02-11T03:12:24.455Z,2
2018-02-11T03:13:24.398Z,2
2018-02-11T03:14:24.468Z,2
2018-02-11T03:15:24.456Z,2
2018-02-11T03:16:24.400Z,1.99
2018-02-11T03:17:24.562Z,1.99
2018-02-11T03:18:24.423Z,2
2018-02-11T03:19:24.514Z,2
2018-02-11T03:20:24.447Z,1.99
2018-02-11T03:21:24.492Z,2.01
2018-02-11T03:22:24.460Z,1.99
2018-02-11T03:23:24.473Z,1.96
2018-02-11T03:24:24.501Z,2
2018-02-11T03:25:24.577Z,1.97
2018-02-11T03:26:24.511Z,1.99
2018-02-11T03:27:24.467Z,1.96
2018-02-11T03:28:24.486Z,1.97
2018-02-11T03:29:24.491Z,1.96
2018-02-11T03:30:24.520Z,1.96
2018-02-11T03:31:24.440Z,1.96
2018-02-11T03:32:24.430Z,1.99
2018-02-11T03:33:24.501Z,1.96
2018-02-11T03:34:24.524Z,1.96
2018-02-11T03:35:24.452Z,1.97
2018-02-11T03:36:24.487Z,1.97
2018-02-11T03:37:24.526Z,1.99
2018-02-11T03:38:24.476Z,1.99
2018-02-11T03:39:24.533Z,1.97
2018-02-11T03:40:24.488Z,1.97
2018-02-11T03:41:24.435Z,1.94
2018-02-11T03:42:24.492Z,1.94
2018-02-11T03:43:24.500Z,1.94
2018-02-11T03:44:24.446Z,1.93
2018-02-11T03:45:24.427Z,1.92
2018-02-11T03:46:24.393Z,1.93
2018-02-11T03:47:24.427Z,1.93
2018-02-11T03:48:24.407Z,1.96
2018-02-11T03:49:24.522Z,1.94
2018-02-11T03:50:24.402Z,1.94
2018-02-11T03:51:24.393Z,1.93
2018-02-11T03:52:24.490Z,1.93
2018-02-11T03:53:24.524Z,1.93
2018-02-11T03:54:24.607Z,1.93
2018-02-11T03:55:24.435Z,1.94
2018-02-11T03:56:24.444Z,1.9
2018-02-11T03:57:24.436Z,1.93
2018-02-11T03:58:24.497Z,1.9
2018-02-11T03:59:24.540Z,1.92
2018-02-11T04:00:24.647Z,1.92
2018-02-11T04:01:24.525Z,1.92
2018-02-11T04:02:24.474Z,1.92
2018-02-11T04:03:24.411Z,1.92
2018-02-11T04:04:24.499Z,1.9
2018-02-11T04:05:24.448Z,1.93
2018-02-11T04:06:24.464Z,1.9
2018-02-11T04:07:24.475Z,1.92
2018-02-11T04:08:24.433Z,1.94
2018-02-11T04:09:24.475Z,1.96
2018-02-11T04:10:24.452Z,1.94
2018-02-11T04:11:24.468Z,1.96
2018-02-11T04:12:24.487Z,1.94
2018-02-11T04:13:24.459Z,1.94
2018-02-11T04:14:24.393Z,1.96
2018-02-11T04:15:25.291Z,1.96
2018-02-11T04:16:25.427Z,1.96
2018-02-11T04:17:25.280Z,1.96
2018-02-11T04:18:25.219Z,1.96
2018-02-11T04:20:25.284Z,1.97
2018-02-11T04:21:25.301Z,1.99
2018-02-11T04:22:25.267Z,1.96
2018-02-11T04:23:25.316Z,1.96
2018-02-11T04:24:25.321Z,1.96
2018-02-11T04:25:25.305Z,1.97
2018-02-11T04:26:25.307Z,1.97
2018-02-11T04:27:25.285Z,1.96
2018-02-11T04:28:25.219Z,1.97
2018-02-11T04:29:25.271Z,1.99
2018-02-11T04:30:25.293Z,1.99
2018-02-11T04:31:25.284Z,1.99
2018-02-11T04:32:25.306Z,2
2018-02-11T04:33:25.296Z,1.97
2018-02-11T04:34:25.287Z,1.99
2018-02-11T04:35:25.258Z,2.03
2018-02-11T04:36:25.233Z,2.04
2018-02-11T04:37:25.271Z,1.97
2018-02-11T04:38:25.251Z,2.03
2018-02-11T04:39:25.294Z,2
2018-02-11T04:40:25.378Z,2.03
2018-02-11T04:41:25.248Z,2.03
2018-02-11T04:42:25.225Z,2.04
2018-02-11T04:43:25.218Z,2.04
2018-02-11T04:44:25.336Z,2.06
2018-02-11T04:45:25.238Z,2.07
2018-02-11T04:46:25.275Z,2.07
2018-02-11T04:47:25.309Z,2.04
2018-02-11T04:48:25.222Z,2.07
2018-02-11T04:49:25.184Z,2.06
2018-02-11T04:50:25.228Z,2.1
2018-02-11T04:51:25.288Z,2.11
2018-02-11T04:52:25.270Z,2.09
2018-02-11T04:53:25.282Z,2.11
2018-02-11T04:54:25.341Z,2.07
2018-02-11T04:55:25.267Z,2.1
2018-02-11T04:56:25.292Z,2.1
2018-02-11T04:57:25.298Z,2.09
2018-02-11T04:58:25.257Z,2.1
2018-02-11T04:59:25.253Z,2.09
2018-02-11T05:00:25.262Z,2.09
2018-02-11T05:01:25.291Z,2.1
2018-02-11T05:02:25.232Z,2.11
2018-02-11T05:03:25.366Z,2.11
2018-02-11T05:04:25.241Z,2.1
2018-02-11T05:05:25.218Z,2.07
2018-02-11T05:06:25.257Z,2.07
2018-02-11T05:07:25.296Z,2.1
2018-02-11T05:08:25.323Z,2.09
2018-02-11T05:09:25.230Z,2.07
2018-02-11T05:10:25.293Z,2.1
2018-02-11T05:11:25.317Z,2.1
2018-02-11T05:12:25.276Z,2.1
2018-02-11T05:13:25.285Z,2.11
2018-02-11T05:14:25.307Z,2.09
2018-02-11T05:15:24.415Z,2.11
2018-02-11T05:16:24.425Z,2.11
2018-02-11T05:17:24.349Z,2.11
2018-02-11T05:18:24.406Z,2.1
2018-02-11T05:19:24.424Z,2.11
2018-02-11T05:20:24.433Z,2.11
2018-02-11T05:21:24.418Z,2.11
2018-02-11T05:22:24.472Z,2.14
2018-02-11T05:23:24.432Z,2.14
2018-02-11T05:24:24.406Z,2.14
2018-02-11T05:25:24.476Z,2.16
2018-02-11T05:26:24.438Z,2.17
2018-02-11T05:27:24.473Z,2.16
2018-02-11T05:28:24.707Z,2.17
2018-02-11T05:29:24.490Z,2.14
2018-02-11T05:30:24.466Z,2.17
2018-02-11T05:31:24.375Z,2.17
2018-02-11T05:32:24.406Z,2.2
2018-02-11T05:33:24.399Z,2.17
2018-02-11T05:34:24.359Z,2.18
2018-02-11T05:35:24.398Z,2.2
2018-02-11T05:36:24.432Z,2.2
2018-02-11T05:39:35.956Z,2.2
2018-02-11T05:40:24.449Z,2.22
2018-02-11T05:41:24.469Z,2.21
2018-02-11T05:42:24.465Z,2.22
2018-02-11T05:43:24.367Z,2.24
2018-02-11T05:44:24.444Z,2.26
2018-02-11T05:45:24.384Z,2.24
2018-02-11T05:46:25.117Z,2.22
2018-02-11T05:47:25.134Z,2.26
2018-02-11T05:48:25.105Z,2.26
2018-02-11T05:49:25.239Z,2.26
2018-02-11T05:50:25.146Z,2.26
2018-02-11T05:51:25.143Z,2.22
2018-02-11T05:52:25.255Z,2.24
2018-02-11T05:53:25.181Z,2.26
2018-02-11T05:54:25.213Z,2.26
2018-02-11T05:55:25.151Z,2.24
2018-02-11T05:56:25.094Z,2.24
2018-02-11T05:57:25.164Z,2.27
2018-02-11T05:58:25.177Z,2.24
2018-02-11T05:59:25.184Z,2.22
2018-02-11T06:00:25.159Z,2.22
2018-02-11T06:01:25.139Z,2.24
2018-02-11T06:02:25.124Z,2.24
2018-02-11T06:03:25.244Z,2.26
2018-02-11T06:04:25.159Z,2.24
2018-02-11T06:05:25.223Z,2.26
2018-02-11T06:06:25.175Z,2.26
2018-02-11T06:07:25.195Z,2.27
2018-02-11T06:08:25.123Z,2.27
2018-02-11T06:09:25.218Z,2.3
2018-02-11T06:10:25.142Z,2.28
2018-02-11T06:11:25.117Z,2.3
2018-02-11T06:12:25.207Z,2.28
2018-02-11T06:13:25.214Z,2.31
2018-02-11T06:14:25.161Z,2.31
2018-02-11T06:15:25.192Z,2.33
2018-02-11T06:16:24.987Z,2.33
2018-02-11T06:17:25.036Z,2.36
2018-02-11T06:18:24.991Z,2.38
2018-02-11T06:19:25.051Z,2.36
2018-02-11T06:20:25.089Z,2.34
2018-02-11T06:21:25.009Z,2.33
2018-02-11T06:22:25.007Z,2.34
2018-02-11T06:23:25.039Z,2.33
2018-02-11T06:24:24.997Z,2.34
2018-02-11T06:25:25.081Z,2.36
2018-02-11T06:26:25.028Z,2.36
2018-02-11T06:27:25.012Z,2.33
2018-02-11T06:28:24.987Z,2.34
2018-02-11T06:29:25.045Z,2.34
2018-02-11T06:30:25.041Z,2.33
2018-02-11T06:31:25.069Z,2.34
2018-02-11T06:32:25.002Z,2.37
2018-02-11T06:33:25.047Z,2.37
2018-02-11T06:34:25.064Z,2.37
2018-02-11T06:35:25.017Z,2.38
2018-02-11T06:36:24.965Z,2.38
2018-02-11T06:37:24.976Z,2.38
2018-02-11T06:38:25.000Z,2.38
2018-02-11T06:39:25.003Z,2.41
2018-02-11T06:40:25.051Z,2.4
2018-02-11T06:41:25.036Z,2.41
2018-02-11T06:42:24.986Z,2.4
2018-02-11T06:43:25.059Z,2.4
2018-02-11T06:44:25.072Z,2.41
2018-02-11T06:45:25.221Z,2.43
2018-02-11T06:46:25.264Z,2.4
2018-02-11T06:47:25.235Z,2.38
2018-02-11T06:48:25.228Z,2.4
2018-02-11T06:49:25.215Z,2.4
2018-02-11T06:50:25.185Z,2.4
2018-02-11T06:51:25.200Z,2.37
2018-02-11T06:52:25.268Z,2.36
2018-02-11T06:53:25.246Z,2.37
2018-02-11T06:54:25.244Z,2.37
2018-02-11T06:55:25.239Z,2.37
2018-02-11T06:56:25.621Z,2.38
2018-02-11T06:57:25.263Z,2.37
2018-02-11T06:58:25.213Z,2.4
2018-02-11T06:59:25.284Z,2.4
2018-02-11T07:00:25.163Z,2.41
2018-02-11T07:01:25.261Z,2.41
2018-02-11T07:02:25.191Z,2.43
2018-02-11T07:03:25.267Z,2.43
2018-02-11T07:04:25.180Z,2.45
2018-02-11T07:05:25.172Z,2.43
2018-02-11T07:06:25.258Z,2.43
2018-02-11T07:07:25.205Z,2.43
2018-02-11T07:08:25.189Z,2.43
2018-02-11T07:09:25.182Z,2.44
2018-02-11T07:10:25.145Z,2.44
2018-02-11T07:11:25.220Z,2.45
2018-02-11T07:12:25.221Z,2.45
2018-02-11T07:13:25.195Z,2.47
2018-02-11T07:14:25.156Z,2.48
2018-02-11T07:15:25.213Z,2.48
2018-02-11T07:16:25.180Z,2.48
2018-02-11T07:17:24.995Z,2.49
2018-02-11T07:18:25.055Z,2.51
2018-02-11T07:19:24.978Z,2.51
2018-02-11T07:20:25.021Z,2.51
2018-02-11T07:21:25.068Z,2.54
2018-02-11T07:22:25.034Z,2.56
2018-02-11T07:23:25.048Z,2.55
2018-02-11T07:24:25.073Z,2.55
2018-02-11T07:25:24.994Z,2.55
2018-02-11T07:26:25.053Z,2.55
2018-02-11T07:27:25.165Z,2.55
2018-02-11T07:28:25.052Z,2.54
2018-02-11T07:29:25.014Z,2.58
2018-02-11T07:30:25.114Z,2.61
2018-02-11T07:31:25.101Z,2.61
2018-02-11T07:32:25.107Z,2.59
2018-02-11T07:33:24.996Z,2.62
2018-02-11T07:34:25.213Z,2.61
2018-02-11T07:35:25.196Z,2.59
2018-02-11T07:36:25.021Z,2.59
2018-02-11T07:37:25.228Z,2.62
2018-02-11T07:38:25.034Z,2.58
2018-02-11T07:39:25.011Z,2.59
2018-02-11T07:40:25.037Z,2.64
2018-02-11T07:41:25.111Z,2.61
2018-02-11T07:42:25.177Z,2.61
2018-02-11T07:43:24.997Z,2.64
2018-02-11T07:44:24.974Z,2.65
2018-02-11T07:45:25.081Z,2.64
2018-02-11T07:46:25.122Z,2.64
2018-02-11T07:47:25.332Z,2.64
2018-02-11T07:48:25.248Z,2.62
2018-02-11T07:49:25.167Z,2.64
2018-02-11T07:50:25.107Z,2.68
2018-02-11T07:51:25.234Z,2.64
2018-02-11T07:52:25.203Z,2.66
2018-02-11T07:53:25.259Z,2.68
2018-02-11T07:54:25.246Z,2.66
2018-02-11T07:55:25.253Z,2.65
2018-02-11T07:56:25.353Z,2.66
2018-02-11T07:57:25.428Z,2.66
2018-02-11T07:58:25.253Z,2.68
2018-02-11T07:59:25.217Z,2.68
2018-02-11T08:00:25.366Z,2.69
2018-02-11T08:01:25.202Z,2.65
2018-02-11T08:02:25.197Z,2.66
2018-02-11T08:03:25.200Z,2.64
2018-02-11T08:04:25.273Z,2.66
2018-02-11T08:05:25.172Z,2.65
2018-02-11T08:06:25.358Z,2.68
2018-02-11T08:07:25.121Z,2.71
2018-02-11T08:08:25.096Z,2.71
2018-02-11T08:09:25.176Z,2.71
2018-02-11T08:10:25.266Z,2.71
2018-02-11T08:11:25.200Z,2.71
2018-02-11T08:12:25.176Z,2.72
2018-02-11T08:13:25.180Z,2.73
2018-02-11T08:14:25.190Z,2.71
2018-02-11T08:15:25.218Z,2.73
2018-02-11T08:16:25.199Z,2.72
2018-02-11T08:17:25.435Z,2.76
2018-02-11T08:18:25.501Z,2.76
2018-02-11T08:19:25.448Z,2.77
2018-02-11T08:20:25.399Z,2.79
2018-02-11T08:21:25.437Z,2.82
2018-02-11T08:22:25.426Z,2.82
2018-02-11T08:23:25.398Z,2.86
2018-02-11T08:24:25.405Z,2.84
2018-02-11T08:25:25.373Z,2.87
2018-02-11T08:26:25.444Z,2.87
2018-02-11T08:27:25.413Z,2.86
2018-02-11T08:28:25.430Z,2.87
2018-02-11T08:29:25.337Z,2.89
2018-02-11T08:30:25.535Z,2.87
2018-02-11T08:31:25.382Z,2.89
2018-02-11T08:32:25.400Z,2.9
2018-02-11T08:33:25.402Z,2.89
2018-02-11T08:34:25.419Z,2.92
2018-02-11T08:35:25.447Z,2.9
2018-02-11T08:36:25.397Z,2.9
2018-02-11T08:37:25.433Z,2.92
2018-02-11T08:38:25.375Z,2.92
2018-02-11T08:39:25.382Z,2.9
2018-02-11T08:40:25.364Z,2.92
2018-02-11T08:41:25.313Z,2.92
2018-02-11T08:42:25.379Z,2.92
2018-02-11T08:43:25.658Z,2.92
2018-02-11T08:44:25.362Z,2.89
2018-02-11T08:45:25.439Z,2.87
2018-02-11T08:46:25.370Z,2.87
2018-02-11T08:47:25.449Z,2.83
2018-02-11T08:48:24.402Z,2.84
2018-02-11T08:49:24.409Z,2.8
2018-02-11T08:50:24.433Z,2.83
2018-02-11T08:51:24.408Z,2.79
2018-02-11T08:52:24.457Z,2.79
2018-02-11T08:53:24.334Z,2.76
2018-02-11T08:54:24.441Z,2.79
2018-02-11T08:55:24.412Z,2.75
2018-02-11T08:56:24.355Z,2.76
2018-02-11T08:57:24.370Z,2.77
2018-02-11T08:58:24.397Z,2.76
2018-02-11T08:59:24.418Z,2.77
2018-02-11T09:00:24.640Z,2.77
2018-02-11T09:01:24.358Z,2.77
2018-02-11T09:02:24.418Z,2.79
2018-02-11T09:03:24.369Z,2.8
2018-02-11T09:04:24.384Z,2.79
2018-02-11T09:05:24.387Z,2.82
2018-02-11T09:06:24.478Z,2.79
2018-02-11T09:07:24.372Z,2.79
2018-02-11T09:08:24.549Z,2.8
2018-02-11T09:09:24.474Z,2.76
2018-02-11T09:10:24.432Z,2.76
2018-02-11T09:11:24.349Z,2.73
2018-02-11T09:12:25.024Z,2.73
2018-02-11T09:13:24.595Z,2.72
2018-02-11T09:14:24.438Z,2.73
2018-02-11T09:15:24.436Z,2.73
2018-02-11T09:16:24.389Z,2.72
2018-02-11T09:17:24.726Z,2.71
2018-02-11T09:18:24.392Z,2.71
2018-02-11T09:19:25.240Z,2.69
2018-02-11T09:20:25.226Z,2.71
2018-02-11T09:21:25.219Z,2.71
2018-02-11T09:22:25.243Z,2.69
2018-02-11T09:23:25.303Z,2.75
2018-02-11T09:24:25.235Z,2.73
2018-02-11T09:25:25.474Z,2.71
2018-02-11T09:26:25.718Z,2.69
2018-02-11T09:27:25.261Z,2.68
2018-02-11T09:28:25.219Z,2.68
2018-02-11T09:29:25.282Z,2.69
2018-02-11T09:30:25.678Z,2.69
2018-02-11T09:31:25.269Z,2.71
2018-02-11T09:32:25.269Z,2.71
2018-02-11T09:33:25.460Z,2.72
2018-02-11T09:34:25.178Z,2.72
2018-02-11T09:35:25.212Z,2.71
2018-02-11T09:36:26.041Z,2.72
2018-02-11T09:37:25.423Z,2.72
2018-02-11T09:38:25.280Z,2.73
2018-02-11T09:39:25.445Z,2.73
2018-02-11T09:40:25.326Z,2.75
2018-02-11T09:41:25.375Z,2.73
2018-02-11T09:42:25.573Z,2.72
2018-02-11T09:43:25.404Z,2.76
2018-02-11T09:44:25.251Z,2.75
2018-02-11T09:45:25.500Z,2.73
2018-02-11T09:46:25.290Z,2.77
2018-02-11T09:47:25.297Z,2.75
2018-02-11T09:48:26.452Z,2.77
2018-02-11T09:49:25.060Z,2.79
2018-02-11T09:50:25.533Z,2.8
2018-02-11T09:51:26.085Z,2.79
2018-02-11T09:52:26.465Z,2.82
2018-02-11T09:53:25.995Z,2.82
2018-02-11T09:54:25.764Z,2.8
2018-02-11T09:55:25.109Z,2.83
2018-02-11T09:56:25.504Z,2.83
2018-02-11T09:57:25.788Z,2.84
2018-02-11T09:58:25.031Z,2.86
2018-02-11T09:59:25.539Z,2.86
2018-02-11T10:00:25.817Z,2.86
2018-02-11T10:01:25.166Z,2.84
2018-02-11T10:02:26.306Z,2.87
2018-02-11T10:03:25.577Z,2.86
2018-02-11T10:04:25.051Z,2.87
2018-02-11T10:05:25.067Z,2.9
2018-02-11T10:06:25.917Z,2.9
2018-02-11T10:07:25.708Z,2.9
2018-02-11T10:08:25.646Z,2.9
2018-02-11T10:09:25.948Z,2.9
2018-02-11T10:10:25.564Z,2.9
2018-02-11T10:11:25.122Z,2.94
2018-02-11T10:12:26.549Z,2.93
2018-02-11T10:13:26.402Z,2.93
2018-02-11T10:14:25.949Z,2.93
2018-02-11T10:15:25.968Z,2.94
2018-02-11T10:16:25.120Z,2.94
2018-02-11T10:17:25.470Z,2.93
2018-02-11T10:18:25.786Z,2.93
2018-02-11T10:19:25.511Z,2.96
2018-02-11T10:20:25.515Z,2.94
2018-02-11T10:21:25.664Z,2.93
2018-02-11T10:22:25.557Z,2.93
2018-02-11T10:23:25.122Z,2.93
2018-02-11T10:24:26.070Z,2.94
2018-02-11T10:25:25.621Z,2.92
2018-02-11T10:26:25.563Z,2.9
2018-02-11T10:27:25.721Z,2.92
2018-02-11T10:28:25.378Z,2.93
2018-02-11T10:29:25.475Z,2.92
2018-02-11T10:30:26.227Z,2.94
2018-02-11T10:31:25.736Z,2.93
2018-02-11T10:32:25.457Z,2.94
2018-02-11T10:33:25.686Z,2.96
2018-02-11T10:34:25.572Z,2.97
2018-02-11T10:35:25.297Z,2.97
2018-02-11T10:36:25.960Z,2.99
2018-02-11T10:37:25.539Z,2.96
2018-02-11T10:38:25.514Z,2.94
2018-02-11T10:39:25.556Z,2.97
2018-02-11T10:40:25.232Z,2.97
2018-02-11T10:41:25.464Z,3
2018-02-11T10:42:26.113Z,3
2018-02-11T10:43:25.431Z,3.04
2018-02-11T10:44:25.554Z,3.06
2018-02-11T10:45:25.729Z,3.08
2018-02-11T10:46:25.464Z,3.06
2018-02-11T10:47:25.572Z,3.07
2018-02-11T10:48:26.238Z,3.08
2018-02-11T10:49:25.495Z,3.08
2018-02-11T10:50:25.849Z,3.12
2018-02-11T10:51:26.335Z,3.14
2018-02-11T10:52:26.070Z,3.15
2018-02-11T10:53:25.862Z,3.17
2018-02-11T10:54:26.129Z,3.18
2018-02-11T10:55:25.910Z,3.21
2018-02-11T10:56:25.767Z,3.21
2018-02-11T10:57:27.470Z,3.24
2018-02-11T10:58:25.860Z,3.25
2018-02-11T10:59:25.856Z,3.24
2018-02-11T11:00:26.030Z,3.25
2018-02-11T11:01:25.953Z,3.24
2018-02-11T11:02:26.048Z,3.27
2018-02-11T11:03:25.857Z,3.27
2018-02-11T11:04:26.005Z,3.28
2018-02-11T11:05:25.780Z,3.27
2018-02-11T11:06:25.890Z,3.27
2018-02-11T11:07:25.819Z,3.29
2018-02-11T11:08:25.702Z,3.32
2018-02-11T11:09:26.197Z,3.28
2018-02-11T11:10:26.123Z,3.29
2018-02-11T11:11:25.822Z,3.29
2018-02-11T11:12:26.130Z,3.29
2018-02-11T11:13:25.840Z,3.31
2018-02-11T11:15:26.018Z,3.32
2018-02-11T11:16:25.781Z,3.35
2018-02-11T11:17:26.298Z,3.37
2018-02-11T11:18:26.012Z,3.37
2018-02-11T11:19:25.805Z,3.35
2018-02-11T11:20:25.702Z,3.38
2018-02-11T11:21:25.388Z,3.35
2018-02-11T11:22:25.342Z,3.35
2018-02-11T11:23:25.315Z,3.38
2018-02-11T11:24:25.344Z,3.39
2018-02-11T11:25:25.339Z,3.41
2018-02-11T11:26:25.450Z,3.39
2018-02-11T11:27:25.522Z,3.41
2018-02-11T11:28:25.327Z,3.44
2018-02-11T11:29:25.290Z,3.46
2018-02-11T11:30:26.016Z,3.48
2018-02-11T11:31:25.352Z,3.49
2018-02-11T11:32:25.260Z,3.55
2018-02-11T11:33:25.404Z,3.58
2018-02-11T11:34:25.481Z,3.59
2018-02-11T11:35:25.626Z,3.62
2018-02-11T11:36:25.527Z,3.66
2018-02-11T11:37:25.549Z,3.65
2018-02-11T11:38:25.232Z,3.67
2018-02-11T11:39:25.488Z,3.67
2018-02-11T11:40:25.347Z,3.67
2018-02-11T11:41:25.272Z,3.72
2018-02-11T11:42:25.526Z,3.73
2018-02-11T11:43:25.295Z,3.73
2018-02-11T11:44:25.297Z,3.77
2018-02-11T11:45:25.714Z,3.8
2018-02-11T11:46:25.289Z,3.83
2018-02-11T11:47:25.213Z,3.82
2018-02-11T11:48:26.472Z,3.84
2018-02-11T11:49:25.277Z,3.84
2018-02-11T11:50:25.292Z,3.86
2018-02-11T11:51:25.467Z,3.86
2018-02-11T11:52:25.759Z,3.89
2018-02-11T11:53:25.392Z,3.87
2018-02-11T11:54:25.599Z,3.91
2018-02-11T11:55:25.970Z,3.9
2018-02-11T11:56:25.578Z,3.91
2018-02-11T11:57:25.730Z,3.91
2018-02-11T11:58:25.539Z,3.96
2018-02-11T11:59:26.178Z,3.91
2018-02-11T12:00:25.799Z,3.96
2018-02-11T12:01:25.659Z,3.98
2018-02-11T12:02:25.981Z,3.96
2018-02-11T12:03:26.348Z,3.96
2018-02-11T12:04:25.738Z,4
2018-02-11T12:05:26.130Z,4
2018-02-11T12:06:25.725Z,4
2018-02-11T12:07:25.734Z,4.02
2018-02-11T12:08:25.954Z,4.07
2018-02-11T12:09:25.600Z,4.07
2018-02-11T12:10:25.515Z,4.08
2018-02-11T12:11:26.922Z,4.1
2018-02-11T12:12:25.852Z,4.12
2018-02-11T12:13:25.746Z,4.1
2018-02-11T12:14:26.059Z,4.11
2018-02-11T12:15:25.328Z,4.14
2018-02-11T12:16:26.211Z,4.17
2018-02-11T12:17:25.752Z,4.17
2018-02-11T12:18:25.303Z,4.19
2018-02-11T12:19:25.685Z,4.21
2018-02-11T12:20:25.814Z,4.22
2018-02-11T12:21:26.061Z,4.25
2018-02-11T12:22:25.353Z,4.28
2018-02-11T12:23:25.155Z,4.22
2018-02-11T12:24:25.215Z,4.25
2018-02-11T12:25:25.337Z,4.26
2018-02-11T12:26:25.716Z,4.29
2018-02-11T12:27:25.661Z,4.25
2018-02-11T12:28:25.346Z,4.28
2018-02-11T12:29:25.217Z,4.29
2018-02-11T12:30:25.324Z,4.33
2018-02-11T12:31:25.357Z,4.33
2018-02-11T12:32:25.370Z,4.35
2018-02-11T12:33:25.401Z,4.38
2018-02-11T12:34:25.391Z,4.38
2018-02-11T12:35:25.281Z,4.38
2018-02-11T12:36:25.247Z,4.4
2018-02-11T12:37:25.260Z,4.43
2018-02-11T12:38:25.162Z,4.48
2018-02-11T12:39:25.193Z,4.48
2018-02-11T12:40:25.268Z,4.56
2018-02-11T12:41:25.309Z,4.62
2018-02-11T12:42:25.453Z,4.67
2018-02-11T12:43:25.253Z,4.79
2018-02-11T12:44:25.216Z,4.83
2018-02-11T12:45:25.393Z,4.86
2018-02-11T12:46:25.820Z,4.88
2018-02-11T12:47:25.233Z,4.9
2018-02-11T12:48:25.426Z,4.91
2018-02-11T12:49:25.192Z,4.94
2018-02-11T12:50:25.179Z,4.95
2018-02-11T12:51:25.223Z,5
2018-02-11T12:52:25.272Z,5.04
2018-02-11T12:53:25.378Z,5.02
2018-02-11T12:54:25.559Z,4.97
2018-02-11T12:55:25.257Z,4.98
2018-02-11T12:56:25.275Z,4.95
2018-02-11T12:57:25.342Z,4.88
2018-02-11T12:58:25.369Z,4.94
2018-02-11T12:59:25.424Z,4.97
2018-02-11T13:00:25.329Z,4.98
2018-02-11T13:01:25.459Z,5
2018-02-11T13:02:25.391Z,5
2018-02-11T13:03:25.242Z,4.98
2018-02-11T13:04:25.329Z,5
2018-02-11T13:05:25.256Z,5.02
2018-02-11T13:06:25.734Z,5.07
2018-02-11T13:07:25.320Z,5.08
2018-02-11T13:08:25.271Z,5.15
2018-02-11T13:09:25.278Z,5.18
2018-02-11T13:10:25.193Z,5.19
2018-02-11T13:11:25.194Z,5.21
2018-02-11T13:12:25.231Z,5.25
2018-02-11T13:13:25.322Z,5.3
2018-02-11T13:14:25.328Z,5.3
2018-02-11T13:15:26.305Z,5.32
2018-02-11T13:16:25.891Z,5.33
2018-02-11T13:17:25.234Z,5.33
2018-02-11T13:18:25.433Z,5.3
2018-02-11T13:19:25.277Z,5.29
2018-02-11T13:20:25.336Z,5.25
2018-02-11T13:21:25.368Z,5.26
2018-02-11T13:22:25.229Z,5.22
2018-02-11T13:23:25.290Z,5.23
2018-02-11T13:24:25.290Z,5.26
2018-02-11T13:25:25.258Z,5.25
2018-02-11T13:26:25.378Z,5.3
2018-02-11T13:27:25.434Z,5.3
2018-02-11T13:28:25.301Z,5.25
2018-02-11T13:29:25.374Z,5.21
2018-02-11T13:30:25.548Z,5.22